createdAt,value
2023-03-04T00:00:52.848Z,29.63
2023-03-04T00:03:54.255Z,30.90
2023-03-04T00:06:55.677Z,27.57
2023-03-04T00:09:57.318Z,27.73
2023-03-04T00:12:58.719Z,29.13
2023-03-04T00:16:00.212Z,29.60
2023-03-04T00:19:01.633Z,32.50
2023-03-04T00:22:04.445Z,29.37
2023-03-04T00:25:07.409Z,28.87
2023-03-04T00:28:08.807Z,31.00
2023-03-04T00:31:10.797Z,31.13
2023-03-04T00:34:12.182Z,33.03
2023-03-04T00:37:13.709Z,34.80
2023-03-04T00:40:15.207Z,32.73
2023-03-04T00:43:16.598Z,29.13
2023-03-04T00:46:18.028Z,31.53
2023-03-04T00:49:19.448Z,34.27
2023-03-04T00:52:21.030Z,33.60
2023-03-04T00:55:22.488Z,32.87
2023-03-04T00:58:23.941Z,35.90
2023-03-04T01:01:26.128Z,33.73
2023-03-04T01:04:27.677Z,33.13
2023-03-04T01:07:29.162Z,33.60
2023-03-04T01:10:31.044Z,35.10
2023-03-04T01:13:33.426Z,38.03
2023-03-04T01:16:34.947Z,34.47
2023-03-04T01:19:36.419Z,37.27
2023-03-04T01:22:38.154Z,35.97
2023-03-04T01:25:39.564Z,40.23
2023-03-04T01:28:41.098Z,39.47
2023-03-04T01:31:42.610Z,40.87
2023-03-04T01:34:44.154Z,36.13
2023-03-04T01:37:45.594Z,40.07
2023-03-04T01:40:48.406Z,39.97
2023-03-04T01:43:50.412Z,42.23
2023-03-04T01:46:53.795Z,42.83
2023-03-04T01:49:57.520Z,40.90
2023-03-04T01:52:59.381Z,38.23
2023-03-04T01:56:10.797Z,41.03
2023-03-04T01:59:20.891Z,40.23
2023-03-04T02:02:22.828Z,43.23
2023-03-04T02:05:24.706Z,48.27
2023-03-04T02:08:26.105Z,46.80
2023-03-04T02:11:27.587Z,50.30
2023-03-04T02:14:29.605Z,50.67
2023-03-04T02:17:33.217Z,48.60
2023-03-04T02:25:24.019Z,43.77
2023-03-04T02:28:25.910Z,50.37
2023-03-04T02:31:34.213Z,48.43
2023-03-04T02:34:36.471Z,52.50
2023-03-04T02:37:37.904Z,49.23
2023-03-04T02:40:43.047Z,53.47
2023-03-04T02:43:46.484Z,54.17
2023-03-04T02:46:50.140Z,50.03
2023-03-04T02:49:51.611Z,49.03
2023-03-04T02:52:53.013Z,51.23
2023-03-04T02:55:54.442Z,54.13
2023-03-04T02:58:57.963Z,55.40
2023-03-04T03:02:00.224Z,51.53
2023-03-04T03:05:01.939Z,52.50
2023-03-04T03:08:04.184Z,55.00
2023-03-04T03:11:06.853Z,54.33
2023-03-04T03:14:10.323Z,54.63
2023-03-04T03:17:11.781Z,52.90
2023-03-04T03:20:14.921Z,53.40
2023-03-04T03:23:17.992Z,56.40
2023-03-04T03:26:20.276Z,55.03
2023-03-04T03:29:21.692Z,57.73
2023-03-04T03:32:23.145Z,57.87
2023-03-04T03:35:26.140Z,58.63
2023-03-04T03:38:27.777Z,58.03
2023-03-04T03:41:29.253Z,58.73
2023-03-04T03:44:30.715Z,61.43
2023-03-04T03:47:32.208Z,54.03
2023-03-04T03:50:33.685Z,55.80
2023-03-04T03:53:35.105Z,53.03
2023-03-04T03:56:36.481Z,54.67
2023-03-04T03:59:37.863Z,56.87
2023-03-04T04:02:39.956Z,52.90
2023-03-04T04:05:41.406Z,56.37
2023-03-04T04:08:42.803Z,52.17
2023-03-04T04:11:44.192Z,57.57
2023-03-04T04:14:45.837Z,51.87
2023-03-04T04:17:47.268Z,55.63
2023-03-04T04:20:48.655Z,53.83
2023-03-04T04:23:50.048Z,56.27
2023-03-04T04:26:51.457Z,53.23
2023-03-04T04:29:52.853Z,57.33
2023-03-04T04:32:54.240Z,58.97
2023-03-04T04:35:55.684Z,58.23
2023-03-04T04:38:57.542Z,65.63
2023-03-04T04:41:58.949Z,63.00
2023-03-04T04:45:00.354Z,65.93
2023-03-04T04:48:01.767Z,64.03
2023-03-04T04:51:03.259Z,66.73
2023-03-04T04:54:05.643Z,67.33
2023-03-04T04:57:07.019Z,68.90
2023-03-04T05:00:10.001Z,68.73
2023-03-04T05:03:11.435Z,61.33
2023-03-04T05:06:13.226Z,59.67
2023-03-04T05:09:14.783Z,62.13
2023-03-04T05:12:16.157Z,58.13
2023-03-04T05:15:17.744Z,63.30
2023-03-04T05:18:20.416Z,63.57
2023-03-04T05:21:21.838Z,63.07
2023-03-04T05:24:23.219Z,58.63
2023-03-04T05:27:24.645Z,57.93
2023-03-04T05:30:26.019Z,55.27
2023-03-04T05:33:27.531Z,55.17
2023-03-04T05:36:28.904Z,50.83
2023-03-04T05:39:30.270Z,53.23
2023-03-04T05:42:31.688Z,48.20
2023-03-04T05:45:33.600Z,51.93
2023-03-04T05:48:35.042Z,50.83
2023-03-04T05:51:36.483Z,53.20
2023-03-04T05:54:37.889Z,56.03
2023-03-04T05:57:39.334Z,59.33
2023-03-04T06:00:40.758Z,53.40
2023-03-04T06:03:43.329Z,55.37
2023-03-04T06:06:46.557Z,52.53
2023-03-04T06:09:47.981Z,53.93
2023-03-04T06:12:49.396Z,55.33
2023-03-04T06:15:58.958Z,49.47
2023-03-04T06:19:00.347Z,51.73
2023-03-04T06:22:01.721Z,50.97
2023-03-04T06:25:03.621Z,52.57
2023-03-04T06:28:05.038Z,56.60
2023-03-04T06:31:06.442Z,55.57
2023-03-04T06:34:09.400Z,56.20
2023-03-04T06:37:10.804Z,56.73
2023-03-04T06:40:13.214Z,58.47
2023-03-04T06:43:14.598Z,51.60
2023-03-04T06:46:15.974Z,50.07
2023-03-04T06:49:17.533Z,46.97
2023-03-04T06:52:19.023Z,55.23
2023-03-04T06:55:20.570Z,51.17
2023-03-04T06:58:21.971Z,51.33
2023-03-04T07:01:25.942Z,48.63
2023-03-04T07:04:27.449Z,48.73
2023-03-04T07:07:28.980Z,50.60
2023-03-04T07:10:30.449Z,47.50
2023-03-04T07:13:32.539Z,52.00
2023-03-04T07:16:34.097Z,49.17
2023-03-04T07:19:35.495Z,51.80
2023-03-04T07:22:37.183Z,49.30
2023-03-04T07:25:38.639Z,52.60
2023-03-04T07:28:40.295Z,53.13
2023-03-04T07:31:42.140Z,46.23
2023-03-04T07:34:43.523Z,48.43
2023-03-04T07:37:45.086Z,48.87
2023-03-04T07:40:55.250Z,48.83
2023-03-04T07:43:58.099Z,52.00
2023-03-04T07:46:59.465Z,52.00
2023-03-04T07:50:00.917Z,47.90
2023-03-04T07:53:02.303Z,50.10
2023-03-04T07:56:04.998Z,54.37
2023-03-04T07:59:06.472Z,53.67
2023-03-04T08:02:08.035Z,48.77
2023-03-04T08:05:09.590Z,47.77
2023-03-04T08:08:11.038Z,52.77
2023-03-04T08:11:15.969Z,51.67
2023-03-04T08:14:17.416Z,58.63
2023-03-04T08:17:18.832Z,51.30
2023-03-04T08:20:20.331Z,53.13
2023-03-04T08:23:21.737Z,55.23
2023-03-04T08:26:26.497Z,57.57
2023-03-04T08:29:28.272Z,57.53
2023-03-04T08:32:30.001Z,55.07
2023-03-04T08:35:31.667Z,55.90
2023-03-04T08:38:33.134Z,61.30
2023-03-04T08:41:34.511Z,54.10
2023-03-04T08:44:35.885Z,50.27
2023-03-04T08:47:37.952Z,56.03
2023-03-04T08:50:39.358Z,54.77
2023-03-04T08:53:41.382Z,58.03
2023-03-04T08:56:42.831Z,55.47
2023-03-04T08:59:44.225Z,54.30
2023-03-04T09:02:45.801Z,52.70
2023-03-04T09:05:48.256Z,54.90
2023-03-04T09:08:49.756Z,57.57
2023-03-04T09:11:51.202Z,57.43
2023-03-04T09:15:08.409Z,57.57
2023-03-04T09:18:12.150Z,61.40
2023-03-04T09:21:13.567Z,63.57
2023-03-04T09:24:15.267Z,56.07
2023-03-04T09:27:16.701Z,54.23
2023-03-04T09:30:18.475Z,61.77
2023-03-04T09:33:19.891Z,61.03
2023-03-04T09:36:22.023Z,57.27
2023-03-04T09:39:23.486Z,61.33
2023-03-04T09:42:36.932Z,58.87
2023-03-04T09:45:47.072Z,58.70
2023-03-04T09:48:54.603Z,54.70
2023-03-04T09:52:25.691Z,55.23
2023-03-04T09:55:39.211Z,59.33
2023-03-04T09:59:01.430Z,57.93
2023-03-04T10:02:19.085Z,57.57
2023-03-04T10:05:21.967Z,58.43
2023-03-04T10:08:41.238Z,59.73
2023-03-04T10:11:50.324Z,63.50
2023-03-04T10:15:00.706Z,58.20
2023-03-04T10:18:37.646Z,58.73
2023-03-04T10:21:43.001Z,56.30
2023-03-04T10:24:47.046Z,61.40
2023-03-04T10:27:54.008Z,60.37
2023-03-04T10:31:25.997Z,59.93
2023-03-04T10:34:27.699Z,55.20
2023-03-04T10:37:45.502Z,59.03
2023-03-04T10:40:47.098Z,57.60
2023-03-04T10:44:00.698Z,60.73
2023-03-04T10:47:02.204Z,59.90
2023-03-04T10:50:05.466Z,62.47
2023-03-04T10:53:25.252Z,59.13
2023-03-04T10:56:36.519Z,58.17
2023-03-04T10:59:43.374Z,55.97
2023-03-04T11:02:46.305Z,54.67
2023-03-04T11:05:48.312Z,55.00
2023-03-04T11:08:55.274Z,56.27
2023-03-04T11:12:00.290Z,56.40
2023-03-04T11:15:03.179Z,58.73
2023-03-04T11:18:10.069Z,55.30
2023-03-04T11:21:19.046Z,55.80
2023-03-04T11:24:29.591Z,54.33
2023-03-04T11:27:44.324Z,58.23
2023-03-04T11:30:50.043Z,54.37
2023-03-04T11:33:58.326Z,51.60
2023-03-04T11:37:08.299Z,53.40
2023-03-04T11:40:16.289Z,53.00
2023-03-04T11:43:24.551Z,53.87
2023-03-04T11:46:44.020Z,53.23
2023-03-04T11:50:03.396Z,48.60
2023-03-04T11:53:25.534Z,45.60
2023-03-04T11:56:33.079Z,48.07
2023-03-04T11:59:42.640Z,45.07
2023-03-04T12:03:18.454Z,47.20
2023-03-04T12:06:26.040Z,43.80
2023-03-04T12:09:57.102Z,44.83
2023-03-04T12:13:13.715Z,41.00
2023-03-04T12:16:48.566Z,41.90
2023-03-04T12:19:58.940Z,40.00
2023-03-04T12:23:22.263Z,44.07
2023-03-04T12:26:36.873Z,42.07
2023-03-04T12:29:44.353Z,44.17
2023-03-04T12:33:03.746Z,34.37
2023-03-04T12:36:29.998Z,34.33
2023-03-04T12:39:56.433Z,39.27
2023-03-04T12:43:09.633Z,38.83
2023-03-04T12:46:30.802Z,40.23
2023-03-04T12:50:03.268Z,34.23
2023-03-04T12:53:13.851Z,41.60
2023-03-04T12:56:22.641Z,38.23
2023-03-04T12:59:26.831Z,44.73
2023-03-04T13:03:06.413Z,39.93
2023-03-04T13:06:26.508Z,42.93
2023-03-04T13:09:43.778Z,37.73
2023-03-04T13:12:54.631Z,37.40
2023-03-04T13:16:23.315Z,38.43
2023-03-04T13:19:52.719Z,35.10
2023-03-04T13:22:58.340Z,37.40
2023-03-04T13:26:00.136Z,34.03
2023-03-04T13:29:14.050Z,33.97
2023-03-04T13:32:36.803Z,31.23
2023-03-04T13:35:50.452Z,33.43
2023-03-04T13:39:14.114Z,35.13
2023-03-04T13:42:39.869Z,32.97
2023-03-04T13:45:41.296Z,31.83
2023-03-04T13:48:43.081Z,35.30
2023-03-04T13:51:45.915Z,35.57
2023-03-04T13:54:47.379Z,30.27
2023-03-04T13:57:50.924Z,30.93
2023-03-04T14:00:54.788Z,34.97
2023-03-04T14:03:56.289Z,34.63
2023-03-04T14:07:00.149Z,34.57
2023-03-04T14:10:07.459Z,35.57
2023-03-04T14:13:09.213Z,33.73
2023-03-04T14:16:11.584Z,31.60
2023-03-04T14:19:24.619Z,32.43
2023-03-04T14:22:29.440Z,32.37
2023-03-04T14:25:36.985Z,32.40
2023-03-04T14:28:50.115Z,31.30
2023-03-04T14:31:53.177Z,33.80
2023-03-04T14:34:59.170Z,33.70
2023-03-04T14:38:06.381Z,32.97
2023-03-04T14:41:15.086Z,35.30
2023-03-04T14:44:36.067Z,32.50
2023-03-04T14:47:41.850Z,47.97
2023-03-04T14:50:51.287Z,31.27
2023-03-04T14:53:56.556Z,32.17
2023-03-04T14:57:00.636Z,35.73
2023-03-04T15:00:20.554Z,33.47
2023-03-04T15:03:30.335Z,34.70
2023-03-04T15:06:37.904Z,34.50
2023-03-04T15:09:40.916Z,31.27
2023-03-04T15:12:51.393Z,34.20
2023-03-04T15:16:00.886Z,30.70
2023-03-04T15:19:05.890Z,35.10
2023-03-04T15:22:08.045Z,37.17
2023-03-04T15:25:15.186Z,32.00
2023-03-04T15:28:20.641Z,35.87
2023-03-04T15:31:23.898Z,33.70
2023-03-04T15:34:25.287Z,33.83
2023-03-04T15:37:29.310Z,35.43
2023-03-04T15:40:38.880Z,34.57
2023-03-04T15:43:40.268Z,36.80
2023-03-04T15:46:42.064Z,40.90
2023-03-04T15:49:46.909Z,31.83
2023-03-04T15:52:50.862Z,35.37
2023-03-04T15:55:52.809Z,36.90
2023-03-04T15:58:56.689Z,30.20
2023-03-04T16:01:58.104Z,32.03
2023-03-04T16:04:59.529Z,33.57
2023-03-04T16:08:01.518Z,34.60
2023-03-04T16:11:03.045Z,31.17
2023-03-04T16:14:04.417Z,32.80
2023-03-04T16:17:05.829Z,32.00
2023-03-04T16:20:07.457Z,31.40
2023-03-04T16:23:23.746Z,31.53
2023-03-04T16:26:31.217Z,36.10
2023-03-04T16:29:32.586Z,28.63
2023-03-04T16:32:35.105Z,34.30
2023-03-04T16:35:37.582Z,30.73
2023-03-04T16:38:38.995Z,39.50
2023-03-04T16:41:40.365Z,37.20
2023-03-04T16:44:41.763Z,36.13
2023-03-04T16:47:43.287Z,39.50
2023-03-04T16:50:44.862Z,44.80
2023-03-04T16:53:53.274Z,36.17
2023-03-04T16:56:54.716Z,36.07
2023-03-04T16:59:56.207Z,33.77
2023-03-04T17:03:00.294Z,34.13
2023-03-04T17:06:01.775Z,33.00
2023-03-04T17:09:03.261Z,34.83
2023-03-04T17:12:06.462Z,37.27
2023-03-04T17:15:11.448Z,39.33
2023-03-04T17:18:12.877Z,36.37
2023-03-04T17:21:18.546Z,33.07
2023-03-04T17:24:19.985Z,34.30
2023-03-04T17:27:21.380Z,31.23
2023-03-04T17:30:22.819Z,40.03
2023-03-04T17:33:24.259Z,37.00
2023-03-04T17:36:25.627Z,32.33
2023-03-04T17:39:27.109Z,40.67
2023-03-04T17:42:28.544Z,32.60
2023-03-04T17:45:29.989Z,34.20
2023-03-04T17:48:31.698Z,33.77
2023-03-04T17:51:36.153Z,37.30
2023-03-04T17:54:37.869Z,36.90
2023-03-04T17:57:39.273Z,32.40
2023-03-04T18:00:40.724Z,32.27
2023-03-04T18:03:42.093Z,32.60
2023-03-04T18:06:43.620Z,32.63
2023-03-04T18:09:47.044Z,30.03
2023-03-04T18:12:48.477Z,28.73
2023-03-04T18:15:49.999Z,33.20
2023-03-04T18:18:52.072Z,33.47
2023-03-04T18:21:53.457Z,31.47
2023-03-04T18:24:54.918Z,30.23
2023-03-04T18:27:56.347Z,29.33
2023-03-04T18:30:57.802Z,29.10
2023-03-04T18:34:01.332Z,30.43
2023-03-04T18:37:02.822Z,27.80
2023-03-04T18:40:04.880Z,26.90
2023-03-04T18:43:06.352Z,31.17
2023-03-04T18:46:09.595Z,26.97
2023-03-04T18:49:12.748Z,28.30
2023-03-04T18:52:14.334Z,29.90
2023-03-04T18:55:16.243Z,29.50
2023-03-04T18:58:17.670Z,30.73
2023-03-04T19:01:22.060Z,31.23
2023-03-04T19:04:27.562Z,28.30
2023-03-04T19:07:28.986Z,29.80
2023-03-04T19:10:30.593Z,28.53
2023-03-04T19:13:32.848Z,29.17
2023-03-04T19:16:34.454Z,31.77
2023-03-04T19:19:36.412Z,32.73
2023-03-04T19:22:37.854Z,30.73
2023-03-04T19:25:40.312Z,32.87
2023-03-04T19:28:42.204Z,31.07
2023-03-04T19:31:43.586Z,30.17
2023-03-04T19:34:46.320Z,32.37
2023-03-04T19:37:47.700Z,33.93
2023-03-04T19:40:49.102Z,32.87
2023-03-04T19:43:50.606Z,34.63
2023-03-04T19:46:52.097Z,32.00
2023-03-04T19:49:53.572Z,35.60
2023-03-04T19:52:55.030Z,30.03
2023-03-04T19:55:56.450Z,29.30
2023-03-04T19:58:58.262Z,30.07
2023-03-04T20:02:01.209Z,30.40
2023-03-04T20:05:03.438Z,30.60
2023-03-04T20:08:05.385Z,28.87
2023-03-04T20:11:11.315Z,34.37
2023-03-04T20:14:13.204Z,34.03
2023-03-04T20:17:15.108Z,31.40
2023-03-04T20:20:16.748Z,30.73
2023-03-04T20:23:20.269Z,34.60
2023-03-04T20:26:21.824Z,30.60
2023-03-04T20:29:28.426Z,31.97
2023-03-04T20:32:29.904Z,30.43
2023-03-04T20:35:31.307Z,34.37
2023-03-04T20:38:32.745Z,33.03
2023-03-04T20:41:34.672Z,30.30
2023-03-04T20:44:36.154Z,29.47
2023-03-04T20:47:39.599Z,28.70
2023-03-04T20:50:41.203Z,32.93
2023-03-04T20:53:42.641Z,31.43
2023-03-04T20:56:44.185Z,37.03
2023-03-04T20:59:45.575Z,36.57
2023-03-04T21:02:46.966Z,34.57
2023-03-04T21:05:48.354Z,35.27
2023-03-04T21:08:49.910Z,33.10
2023-03-04T21:11:51.479Z,33.67
2023-03-04T21:14:52.912Z,38.40
2023-03-04T21:17:54.500Z,28.83
2023-03-04T21:20:55.968Z,36.80
2023-03-04T21:23:59.196Z,31.53
2023-03-04T21:27:01.510Z,30.27
2023-03-04T21:30:03.051Z,33.13
2023-03-04T21:33:05.598Z,34.63
2023-03-04T21:36:07.309Z,28.60
2023-03-04T21:39:14.605Z,35.20
2023-03-04T21:42:16.071Z,30.40
2023-03-04T21:45:17.547Z,34.50
2023-03-04T21:48:19.197Z,37.63
2023-03-04T21:51:20.626Z,29.03
2023-03-04T21:54:22.970Z,30.37
2023-03-04T21:57:24.380Z,36.50
2023-03-04T22:00:25.977Z,30.07
2023-03-04T22:03:27.567Z,33.53
2023-03-04T22:06:31.315Z,32.23
2023-03-04T22:09:33.069Z,30.17
2023-03-04T22:12:34.434Z,34.13
2023-03-04T22:15:37.706Z,38.90
2023-03-04T22:18:40.744Z,36.97
2023-03-04T22:21:42.315Z,35.03
2023-03-04T22:24:43.696Z,31.80
2023-03-04T22:27:45.154Z,36.37
2023-03-04T22:30:46.625Z,32.90
2023-03-04T22:33:48.045Z,31.60
2023-03-04T22:36:49.517Z,37.13
2023-03-04T22:39:50.925Z,38.13
2023-03-04T22:42:52.814Z,30.33
2023-03-04T22:45:54.305Z,33.77
2023-03-04T22:48:57.967Z,29.63
2023-03-04T22:51:59.402Z,32.67
2023-03-04T22:55:00.933Z,34.80
2023-03-04T22:58:03.844Z,35.70
2023-03-04T23:01:05.814Z,35.07
2023-03-04T23:04:07.241Z,33.37
2023-03-04T23:07:08.637Z,35.77
2023-03-04T23:10:17.157Z,33.27
2023-03-04T23:13:18.596Z,33.07
2023-03-04T23:16:21.082Z,39.17
2023-03-04T23:19:22.505Z,36.47
2023-03-04T23:22:24.153Z,38.27
2023-03-04T23:25:25.988Z,34.23
2023-03-04T23:28:27.694Z,42.43
2023-03-04T23:31:30.080Z,31.90
2023-03-04T23:34:31.492Z,34.20
2023-03-04T23:37:33.013Z,35.20
2023-03-04T23:40:34.615Z,38.23
2023-03-04T23:43:36.103Z,38.43
2023-03-04T23:46:37.586Z,38.73
2023-03-04T23:49:38.954Z,33.13
2023-03-04T23:52:40.396Z,34.97
2023-03-04T23:55:41.881Z,37.73
2023-03-04T23:58:44.291Z,33.73
